Hlavní strana
METAR-TAF:

METAR-TAF

Letiště :

Majuro, Marshallovy ostrovy

zeměpisná šířka: 07-04N, zeměpisná délka: 171-17E, výška: 2 m

Aktuální stav počasí

Zpráva byla vytvořena před 16 minutami, v 19:19 UTC
Východojihovýchodní vítr 9 kt
Teplota 28°C
Vlhkost vzduchu 84%
Tlak 1008 hPa
Viditelnost: 24.1 km
Skoro jasno ve výšce 1500 ft
Polojasno ve výšce 5000 ft
Oblačno až skoro zataženo ve výšce 30000 ft

METAR: PKMJ 051919Z 11009KT 15SM FEW015 SCT050 BKN300 28/25 A2978 RMK FIRST

Čas: 07:35 (19:35 UTC)

Předpověď počasí

Zpráva byla vytvořena před 2 hodinami a 14 minutami, v 17:21 UTC
Předpověď platná od 05 v 18 UTC do 06 v 18 UTC
Jihojihovýchodní vítr 6 kt
Viditelnost: 10 km
Polojasno ve výšce 1500 ft
Polojasno ve výšce 5000 ft
Oblačno až skoro zataženo ve výšce 13000 ft
přeháňky v blízkosti

TAF: PKMJ 051721Z 0518/0618 15006KT P6SM VCSH SCT015 SCT050 BKN130

Stav a předpovědi počasí z více než 4 000 letišť (zprávy METAR a TAF).

Červené a žluté tečky na mapě představují dostupné meteorologické stanice.

Když kurzor umístíte na tečku, zobrazí se název stanice.

Pak kliknutím zobrazíte stav a předpověď počasí.

Chcete-li změnit mapu, kliknutím na zelené tlačítko se znaménkem +mapu přiblížíte, kliknutím na zelené tlačítko se znaménkem – mapu oddálíte a kliknutím na zelené šipky přejdete na sousední mapy.


METAR-TAF: